createdAt,value
2018-09-29T00:00:34.040Z,13.13
2018-09-29T00:03:04.136Z,18.40
2018-09-29T00:05:34.358Z,17.50
2018-09-29T00:08:04.776Z,14.17
2018-09-29T00:10:34.851Z,14.87
2018-09-29T00:13:04.687Z,12.27
2018-09-29T00:15:34.795Z,12.87
2018-09-29T00:18:10.305Z,20.57
2018-09-29T00:20:40.414Z,16.40
2018-09-29T00:23:10.414Z,21.43
2018-09-29T00:25:46.380Z,16.37
2018-09-29T00:28:16.471Z,13.10
2018-09-29T00:30:46.350Z,16.80
2018-09-29T00:33:17.980Z,19.77
2018-09-29T00:35:48.025Z,18.60
2018-09-29T00:38:19.479Z,17.77
2018-09-29T00:40:49.290Z,19.07
2018-09-29T00:43:19.571Z,19.27
2018-09-29T00:45:50.123Z,23.53
2018-09-29T00:48:20.526Z,14.63
2018-09-29T00:50:50.971Z,21.67
2018-09-29T00:53:21.063Z,20.30
2018-09-29T00:55:51.171Z,18.17
2018-09-29T00:58:22.658Z,14.93
2018-09-29T01:00:52.594Z,22.40
2018-09-29T01:03:22.452Z,16.03
2018-09-29T01:05:53.338Z,22.70
2018-09-29T01:08:23.731Z,13.50
2018-09-29T01:10:53.495Z,13.67
2018-09-29T01:13:23.678Z,16.47
2018-09-29T01:15:53.810Z,9.27
2018-09-29T01:18:23.697Z,18.70
2018-09-29T01:20:54.014Z,19.27
2018-09-29T01:23:24.116Z,18.47
2018-09-29T01:25:53.979Z,19.87
2018-09-29T01:28:23.962Z,14.30
2018-09-29T01:30:53.762Z,12.47
2018-09-29T01:33:23.768Z,14.60
2018-09-29T01:36:03.015Z,20.33
2018-09-29T01:38:33.167Z,22.03
2018-09-29T01:41:03.394Z,16.07
2018-09-29T01:43:33.178Z,22.83
2018-09-29T01:46:03.752Z,18.73
2018-09-29T01:48:33.644Z,13.53
2018-09-29T01:51:04.110Z,15.77
2018-09-29T01:53:33.882Z,13.67
2018-09-29T01:56:03.678Z,13.67
2018-09-29T01:58:33.523Z,16.43
2018-09-29T02:01:03.586Z,17.83
2018-09-29T02:03:33.831Z,19.40
2018-09-29T02:06:04.052Z,21.87
2018-09-29T02:08:34.586Z,16.83
2018-09-29T02:11:04.343Z,20.07
2018-09-29T02:13:34.430Z,16.03
2018-09-29T02:16:04.635Z,18.27
2018-09-29T02:18:43.907Z,19.60
2018-09-29T02:21:14.159Z,20.23
2018-09-29T02:23:44.212Z,25.77
2018-09-29T02:26:13.996Z,24.47
2018-09-29T02:28:44.180Z,16.93
2018-09-29T02:31:14.007Z,17.93
2018-09-29T02:33:44.209Z,17.40
2018-09-29T02:36:14.182Z,17.23
2018-09-29T02:38:44.646Z,19.57
2018-09-29T02:41:14.763Z,18.30
2018-09-29T02:43:44.678Z,15.90
2018-09-29T02:46:14.819Z,21.53
2018-09-29T02:48:45.404Z,21.53
2018-09-29T02:51:15.227Z,21.57
2018-09-29T02:53:45.132Z,18.00
2018-09-29T02:56:15.439Z,15.60
2018-09-29T02:58:45.625Z,14.10
2018-09-29T03:01:15.457Z,19.83
2018-09-29T03:03:49.515Z,13.60
2018-09-29T03:06:19.510Z,24.00
2018-09-29T03:08:49.734Z,15.07
2018-09-29T03:11:19.891Z,12.63
2018-09-29T03:13:50.095Z,13.50
2018-09-29T03:16:20.307Z,18.53
2018-09-29T03:18:50.714Z,12.90
2018-09-29T03:21:21.039Z,21.30
2018-09-29T03:23:50.930Z,23.73
2018-09-29T03:26:23.295Z,18.07
2018-09-29T03:28:53.348Z,25.30
2018-09-29T03:31:23.325Z,25.83
2018-09-29T03:33:53.755Z,19.20
2018-09-29T03:36:23.847Z,17.10
2018-09-29T03:38:54.002Z,12.37
2018-09-29T03:41:25.366Z,18.03
2018-09-29T03:43:55.452Z,15.40
2018-09-29T03:46:25.349Z,15.33
2018-09-29T03:48:55.783Z,20.37
2018-09-29T03:51:25.551Z,12.53
2018-09-29T03:53:55.347Z,18.73
2018-09-29T03:56:25.464Z,16.83
2018-09-29T03:58:56.969Z,14.00
2018-09-29T04:01:26.878Z,18.30
2018-09-29T04:03:57.320Z,16.10
2018-09-29T04:06:27.781Z,17.53
2018-09-29T04:08:58.317Z,15.03
2018-09-29T04:11:28.494Z,20.13
2018-09-29T04:13:58.582Z,20.07
2018-09-29T04:16:28.607Z,12.90
2018-09-29T04:18:58.521Z,15.77
2018-09-29T04:21:32.455Z,14.97
2018-09-29T04:24:04.956Z,17.60
2018-09-29T04:26:35.140Z,17.17
2018-09-29T04:29:05.103Z,12.33
2018-09-29T04:31:35.275Z,14.90
2018-09-29T04:34:05.535Z,12.73
2018-09-29T04:36:36.075Z,14.40
2018-09-29T04:39:08.627Z,11.70
2018-09-29T04:41:39.102Z,10.60
2018-09-29T04:44:09.753Z,18.37
2018-09-29T04:46:40.970Z,12.23
2018-09-29T04:49:11.469Z,18.50
2018-09-29T04:51:41.810Z,12.80
2018-09-29T04:54:12.079Z,15.07
2018-09-29T04:56:42.019Z,17.73
2018-09-29T04:59:11.940Z,14.23
2018-09-29T05:01:41.719Z,17.10
2018-09-29T05:04:15.223Z,13.50
2018-09-29T05:06:45.506Z,12.53
2018-09-29T05:09:15.644Z,10.63
2018-09-29T05:11:46.311Z,8.53
2018-09-29T05:14:16.448Z,14.00
2018-09-29T05:16:46.683Z,13.43
2018-09-29T05:19:18.068Z,10.77
2018-09-29T05:21:47.991Z,13.30
2018-09-29T05:24:18.065Z,10.47
2018-09-29T05:26:48.386Z,10.73
2018-09-29T05:29:18.636Z,12.73
2018-09-29T05:31:49.258Z,17.73
2018-09-29T05:34:19.343Z,10.50
2018-09-29T05:36:49.431Z,10.03
2018-09-29T05:39:20.282Z,14.63
2018-09-29T05:41:50.597Z,10.93
2018-09-29T05:44:21.060Z,16.20
2018-09-29T05:46:51.008Z,12.33
2018-09-29T05:49:20.963Z,13.03
2018-09-29T05:51:50.848Z,10.30
2018-09-29T05:54:23.266Z,11.60
2018-09-29T05:56:53.324Z,9.77
2018-09-29T05:59:23.131Z,10.97
2018-09-29T06:01:53.396Z,16.47
2018-09-29T06:04:23.463Z,10.73
2018-09-29T06:06:53.335Z,11.00
2018-09-29T06:09:23.687Z,8.87
2018-09-29T06:11:53.715Z,12.70
2018-09-29T06:14:23.624Z,11.47
2018-09-29T06:16:53.638Z,13.53
2018-09-29T06:19:23.979Z,12.17
2018-09-29T06:21:54.166Z,12.33
2018-09-29T06:24:24.631Z,11.00
2018-09-29T06:26:54.531Z,11.67
2018-09-29T06:29:24.799Z,10.67
2018-09-29T06:32:02.600Z,10.20
2018-09-29T06:34:33.175Z,15.50
2018-09-29T06:37:09.357Z,11.83
2018-09-29T06:39:41.105Z,12.57
2018-09-29T06:42:12.675Z,10.00
2018-09-29T06:44:46.087Z,10.30
2018-09-29T06:47:16.117Z,9.00
2018-09-29T06:49:47.144Z,9.83
2018-09-29T06:52:17.004Z,12.33
2018-09-29T06:54:47.104Z,8.07
2018-09-29T06:57:17.568Z,11.03
2018-09-29T06:59:48.152Z,14.60
2018-09-29T07:02:18.308Z,10.53
2018-09-29T07:04:49.524Z,8.70
2018-09-29T07:07:19.470Z,11.43
2018-09-29T07:09:49.751Z,11.07
2018-09-29T07:12:19.730Z,9.90
2018-09-29T07:14:49.840Z,8.23
2018-09-29T07:17:19.747Z,7.67
2018-09-29T07:19:50.005Z,6.83
2018-09-29T07:22:19.835Z,9.33
2018-09-29T07:24:49.903Z,9.77
2018-09-29T07:27:20.883Z,10.57
2018-09-29T07:29:50.938Z,9.63
2018-09-29T07:32:21.225Z,11.07
2018-09-29T07:34:51.051Z,8.67
2018-09-29T07:37:21.884Z,9.90
2018-09-29T07:39:51.776Z,10.00
2018-09-29T07:42:21.587Z,9.60
2018-09-29T07:44:51.415Z,8.60
2018-09-29T07:47:21.326Z,9.93
2018-09-29T07:49:51.115Z,9.03
2018-09-29T07:52:21.630Z,9.10
2018-09-29T07:54:51.567Z,14.50
2018-09-29T07:57:21.472Z,8.47
2018-09-29T07:59:51.375Z,8.90
2018-09-29T08:02:21.187Z,9.47
2018-09-29T08:04:51.417Z,7.13
2018-09-29T08:07:21.424Z,9.13
2018-09-29T08:09:51.263Z,6.93
2018-09-29T08:12:21.671Z,9.33
2018-09-29T08:14:51.703Z,9.43
2018-09-29T08:17:21.668Z,9.93
2018-09-29T08:19:51.740Z,11.07
2018-09-29T08:22:21.652Z,7.70
2018-09-29T08:24:52.180Z,7.27
2018-09-29T08:27:21.986Z,10.43
2018-09-29T08:29:51.870Z,10.40
2018-09-29T08:32:22.197Z,12.07
2018-09-29T08:34:53.618Z,10.90
2018-09-29T08:37:23.471Z,7.60
2018-09-29T08:39:56.187Z,9.27
2018-09-29T08:42:26.403Z,11.13
2018-09-29T08:44:56.539Z,6.90
2018-09-29T08:47:28.792Z,9.47
2018-09-29T08:49:58.887Z,6.93
2018-09-29T08:52:30.347Z,11.00
2018-09-29T08:55:00.607Z,7.27
2018-09-29T08:57:30.499Z,8.70
2018-09-29T09:00:01.095Z,4.83
2018-09-29T09:02:31.282Z,7.70
2018-09-29T09:05:01.117Z,6.90
2018-09-29T09:07:30.856Z,11.30
2018-09-29T09:10:00.646Z,7.60
2018-09-29T09:12:30.478Z,7.43
2018-09-29T09:15:00.265Z,9.67
2018-09-29T09:17:30.035Z,7.43
2018-09-29T09:19:59.882Z,9.03
2018-09-29T09:22:29.713Z,9.23
2018-09-29T09:24:59.551Z,7.97
2018-09-29T09:27:29.763Z,10.17
2018-09-29T09:29:59.622Z,8.23
2018-09-29T09:32:29.485Z,8.90
2018-09-29T09:35:15.076Z,9.87
2018-09-29T09:37:45.219Z,9.37
2018-09-29T09:40:15.012Z,11.27
2018-09-29T09:42:45.207Z,6.47
2018-09-29T09:45:15.147Z,7.90
2018-09-29T09:47:44.923Z,10.00
2018-09-29T09:50:14.699Z,4.83
2018-09-29T09:52:44.471Z,8.83
2018-09-29T09:55:14.245Z,15.93
2018-09-29T09:57:44.247Z,7.97
2018-09-29T10:00:14.092Z,6.97
2018-09-29T10:03:46.229Z,7.93
2018-09-29T10:06:16.040Z,8.03
2018-09-29T10:08:46.119Z,6.13
2018-09-29T10:11:15.874Z,3.53
2018-09-29T10:13:45.659Z,6.07
2018-09-29T10:16:15.447Z,4.97
2018-09-29T10:18:45.569Z,8.90
2018-09-29T10:21:15.326Z,9.17
2018-09-29T10:23:45.380Z,6.90
2018-09-29T10:26:15.133Z,6.97
2018-09-29T10:28:44.900Z,5.40
2018-09-29T10:31:14.700Z,8.93
2018-09-29T10:33:44.488Z,6.60
2018-09-29T10:36:14.602Z,4.67
2018-09-29T10:38:44.479Z,5.20
2018-09-29T10:41:14.524Z,8.00
2018-09-29T10:43:45.398Z,6.47
2018-09-29T10:46:15.682Z,8.97
2018-09-29T10:48:45.791Z,7.93
2018-09-29T10:51:19.812Z,5.43
2018-09-29T10:53:49.664Z,5.70
2018-09-29T10:56:19.890Z,5.93
2018-09-29T10:58:50.036Z,7.17
2018-09-29T11:01:20.032Z,5.30
2018-09-29T11:03:50.543Z,5.70
2018-09-29T11:06:20.915Z,6.20
2018-09-29T11:08:50.807Z,6.70
2018-09-29T11:11:20.634Z,6.23
2018-09-29T11:13:51.817Z,4.23
2018-09-29T11:16:22.058Z,5.60
2018-09-29T11:18:51.956Z,5.77
2018-09-29T11:21:21.887Z,2.87
2018-09-29T11:23:51.995Z,5.53
2018-09-29T11:26:22.760Z,8.07
2018-09-29T11:28:53.268Z,5.07
2018-09-29T11:31:23.500Z,7.03
2018-09-29T11:33:54.608Z,5.30
2018-09-29T11:36:25.108Z,5.37
2018-09-29T11:38:55.392Z,6.20
2018-09-29T11:41:25.191Z,7.60
2018-09-29T11:43:55.239Z,9.47
2018-09-29T11:46:24.984Z,6.77
2018-09-29T11:48:55.353Z,6.43
2018-09-29T11:51:25.760Z,6.83
2018-09-29T11:53:59.847Z,6.67
2018-09-29T11:56:29.734Z,6.47
2018-09-29T11:58:59.847Z,8.00
2018-09-29T12:01:29.666Z,7.63
2018-09-29T12:03:59.431Z,8.27
2018-09-29T12:06:29.495Z,4.43
2018-09-29T12:08:59.675Z,6.10
2018-09-29T12:11:29.848Z,6.27
2018-09-29T12:13:59.707Z,5.43
2018-09-29T12:16:30.758Z,6.33
2018-09-29T12:19:02.351Z,6.60
2018-09-29T12:21:36.386Z,8.60
2018-09-29T12:24:10.539Z,5.60
2018-09-29T12:26:45.474Z,5.60
2018-09-29T12:29:16.961Z,6.00
2018-09-29T12:31:47.104Z,7.43
2018-09-29T12:34:19.753Z,7.10
2018-09-29T12:36:58.099Z,5.17
2018-09-29T12:39:31.719Z,6.87
2018-09-29T12:42:07.124Z,10.97
2018-09-29T12:44:39.396Z,5.10
2018-09-29T12:47:14.113Z,5.53
2018-09-29T12:49:43.899Z,5.97
2018-09-29T12:52:13.780Z,5.83
2018-09-29T12:54:43.746Z,7.20
2018-09-29T12:57:13.718Z,5.23
2018-09-29T12:59:43.521Z,6.43
2018-09-29T13:02:13.500Z,6.50
2018-09-29T13:04:44.211Z,4.50
2018-09-29T13:07:14.011Z,2.97
2018-09-29T13:09:44.017Z,6.23
2018-09-29T13:12:14.102Z,5.97
2018-09-29T13:14:43.889Z,4.77
2018-09-29T13:17:14.017Z,4.67
2018-09-29T13:19:44.028Z,6.17
2018-09-29T13:22:14.059Z,4.73
2018-09-29T13:24:47.882Z,9.13
2018-09-29T13:27:19.115Z,5.33
2018-09-29T13:29:49.968Z,6.10
2018-09-29T13:32:20.247Z,4.90
2018-09-29T13:34:50.290Z,5.03
2018-09-29T13:37:20.540Z,4.00
2018-09-29T13:39:52.747Z,4.80
2018-09-29T13:42:22.940Z,3.87
2018-09-29T13:44:54.346Z,4.40
2018-09-29T13:47:24.454Z,3.93
2018-09-29T13:49:54.247Z,4.27
2018-09-29T13:52:24.059Z,4.20
2018-09-29T13:54:53.877Z,5.00
2018-09-29T13:57:23.721Z,7.23
2018-09-29T13:59:53.971Z,3.23
2018-09-29T14:02:25.476Z,5.07
2018-09-29T14:04:55.553Z,5.63
2018-09-29T14:07:25.581Z,7.50
2018-09-29T14:09:56.248Z,3.50
2018-09-29T14:12:27.740Z,4.80
2018-09-29T14:14:58.090Z,7.03
2018-09-29T14:17:27.876Z,3.53
2018-09-29T14:19:57.764Z,3.83
2018-09-29T14:22:27.808Z,4.50
2018-09-29T14:24:57.727Z,7.93
2018-09-29T14:27:27.500Z,4.10
2018-09-29T14:29:57.860Z,6.27
2018-09-29T14:32:27.668Z,7.20
2018-09-29T14:34:57.465Z,4.63
2018-09-29T14:37:27.706Z,4.53
2018-09-29T14:39:57.502Z,6.00
2018-09-29T14:42:27.342Z,6.13
2018-09-29T14:44:57.593Z,4.97
2018-09-29T14:47:27.412Z,6.10
2018-09-29T14:49:57.384Z,5.47
2018-09-29T14:52:27.611Z,3.07
2018-09-29T14:54:59.263Z,6.10
2018-09-29T14:57:30.027Z,6.07
2018-09-29T15:00:00.422Z,5.00
2018-09-29T15:02:33.900Z,5.93
2018-09-29T15:05:04.014Z,5.53
2018-09-29T15:07:33.840Z,4.23
2018-09-29T15:10:04.142Z,5.27
2018-09-29T15:12:35.067Z,3.93
2018-09-29T15:15:06.107Z,5.33
2018-09-29T15:17:36.745Z,5.20
2018-09-29T15:20:08.020Z,4.43
2018-09-29T15:22:38.497Z,3.13
2018-09-29T15:25:08.599Z,4.27
2018-09-29T15:27:38.422Z,6.37
2018-09-29T15:30:08.338Z,6.10
2018-09-29T15:32:40.779Z,5.53
2018-09-29T15:35:11.227Z,4.70
2018-09-29T15:37:41.559Z,5.70
2018-09-29T15:40:11.667Z,4.43
2018-09-29T15:42:42.147Z,4.97
2018-09-29T15:45:12.086Z,6.03
2018-09-29T15:47:41.859Z,3.37
2018-09-29T15:50:12.019Z,4.53
2018-09-29T15:52:42.028Z,4.40
2018-09-29T15:55:12.162Z,3.07
2018-09-29T15:57:42.763Z,4.17
2018-09-29T16:00:12.817Z,4.77
2018-09-29T16:02:42.931Z,4.40
2018-09-29T16:05:12.748Z,5.30
2018-09-29T16:07:42.551Z,3.53
2018-09-29T16:10:13.423Z,5.57
2018-09-29T16:12:43.568Z,5.37
2018-09-29T16:15:13.616Z,5.43
2018-09-29T16:17:43.834Z,5.63
2018-09-29T16:20:13.930Z,5.63
2018-09-29T16:22:46.308Z,3.60
2018-09-29T16:25:16.459Z,5.10
2018-09-29T16:27:46.362Z,6.37
2018-09-29T16:30:16.887Z,3.63
2018-09-29T16:32:47.520Z,3.73
2018-09-29T16:35:17.597Z,5.17
2018-09-29T16:37:47.835Z,4.27
2018-09-29T16:40:18.278Z,3.50
2018-09-29T16:42:53.541Z,8.50
2018-09-29T16:45:25.748Z,5.30
2018-09-29T16:47:55.851Z,3.87
2018-09-29T16:50:26.479Z,8.07
2018-09-29T16:52:56.422Z,5.43
2018-09-29T16:55:26.635Z,5.87
2018-09-29T16:57:56.784Z,4.27
2018-09-29T17:00:26.762Z,3.57
2018-09-29T17:02:56.628Z,3.97
2018-09-29T17:05:26.471Z,5.70
2018-09-29T17:07:56.599Z,3.93
2018-09-29T17:10:26.461Z,5.53
2018-09-29T17:12:56.353Z,5.43
2018-09-29T17:15:26.168Z,5.70
2018-09-29T17:17:56.141Z,6.33
2018-09-29T17:20:26.818Z,4.33
2018-09-29T17:22:56.713Z,5.30
2018-09-29T17:25:27.176Z,5.17
2018-09-29T17:27:57.432Z,5.77
2018-09-29T17:30:27.898Z,4.63
2018-09-29T17:32:57.747Z,4.77
2018-09-29T17:35:27.618Z,6.97
2018-09-29T17:37:57.711Z,5.70
2018-09-29T17:40:27.512Z,6.27
2018-09-29T17:42:57.609Z,6.77
2018-09-29T17:45:27.941Z,6.30
2018-09-29T17:47:58.031Z,10.40
2018-09-29T17:50:27.812Z,8.87
2018-09-29T17:52:57.958Z,8.10
2018-09-29T17:55:27.962Z,11.03
2018-09-29T17:57:58.124Z,6.97
2018-09-29T18:00:27.951Z,7.07
2018-09-29T18:02:57.687Z,8.50
2018-09-29T18:05:28.227Z,7.77
2018-09-29T18:07:58.795Z,10.10
2018-09-29T18:10:28.622Z,7.07
2018-09-29T18:12:58.737Z,5.60
2018-09-29T18:15:28.510Z,6.23
2018-09-29T18:17:58.628Z,9.70
2018-09-29T18:20:29.008Z,8.23
2018-09-29T18:22:58.883Z,6.20
2018-09-29T18:25:28.893Z,7.33
2018-09-29T18:27:58.676Z,8.13
2018-09-29T18:30:28.777Z,6.00
2018-09-29T18:32:59.040Z,6.73
2018-09-29T18:35:28.815Z,5.27
2018-09-29T18:37:58.618Z,11.57
2018-09-29T18:40:28.911Z,9.97
2018-09-29T18:42:58.837Z,7.73
2018-09-29T18:45:28.628Z,8.03
2018-09-29T18:47:58.774Z,11.13
2018-09-29T18:50:28.591Z,8.73
2018-09-29T18:52:58.367Z,8.87
2018-09-29T18:55:28.663Z,7.73
2018-09-29T18:57:58.467Z,8.07
2018-09-29T19:00:28.271Z,7.67
2018-09-29T19:02:58.039Z,6.63
2018-09-29T19:05:28.291Z,7.60
2018-09-29T19:08:02.871Z,12.57
2018-09-29T19:10:33.194Z,10.20
2018-09-29T19:13:03.871Z,10.90
2018-09-29T19:15:33.691Z,12.43
2018-09-29T19:21:35.747Z,9.73
2018-09-29T19:24:05.687Z,11.07
2018-09-29T19:26:37.175Z,8.80
2018-09-29T19:29:06.981Z,7.67
2018-09-29T19:31:37.592Z,10.77
2018-09-29T19:34:08.476Z,8.97
2018-09-29T19:36:38.816Z,13.30
2018-09-29T19:39:09.378Z,9.47
2018-09-29T19:41:40.450Z,12.17
2018-09-29T19:44:12.263Z,12.77
2018-09-29T19:46:42.694Z,12.23
2018-09-29T19:49:14.171Z,10.50
2018-09-29T19:51:45.181Z,10.33
2018-09-29T19:54:15.723Z,10.43
2018-09-29T19:56:46.709Z,10.00
2018-09-29T19:59:17.376Z,10.57
2018-09-29T20:01:47.874Z,8.27
2018-09-29T20:04:18.746Z,9.40
2018-09-29T20:06:49.154Z,12.33
2018-09-29T20:09:19.790Z,12.47
2018-09-29T20:11:52.598Z,14.53
2018-09-29T20:14:23.599Z,11.27
2018-09-29T20:16:54.435Z,10.90
2018-09-29T20:19:25.586Z,11.43
2018-09-29T20:21:56.155Z,12.10
2018-09-29T20:30:37.662Z,13.10
2018-09-29T20:33:07.562Z,14.17
2018-09-29T20:35:37.399Z,15.77
2018-09-29T20:38:07.583Z,10.97
2018-09-29T20:40:37.676Z,12.67
2018-09-29T20:43:07.638Z,13.33
2018-09-29T20:45:37.441Z,19.17
2018-09-29T20:48:07.322Z,27.27
2018-09-29T20:50:37.135Z,31.00
2018-09-29T20:53:07.222Z,26.87
2018-09-29T20:55:36.974Z,23.23
2018-09-29T20:58:07.271Z,20.40
2018-09-29T21:00:37.459Z,21.27
2018-09-29T21:03:07.239Z,13.93
2018-09-29T21:05:37.064Z,11.83
2018-09-29T21:08:07.135Z,11.97
2018-09-29T21:10:36.950Z,9.47
2018-09-29T21:13:06.848Z,11.97
2018-09-29T21:15:36.658Z,11.23
2018-09-29T21:18:06.467Z,10.83
2018-09-29T21:20:36.538Z,8.50
2018-09-29T21:23:06.339Z,8.53
2018-09-29T21:25:36.103Z,9.90
2018-09-29T21:28:06.227Z,9.90
2018-09-29T21:30:36.022Z,7.00
2018-09-29T21:33:05.830Z,5.73
2018-09-29T21:35:35.607Z,17.50
2018-09-29T21:38:05.711Z,11.03
2018-09-29T21:40:35.563Z,13.43
2018-09-29T21:43:05.372Z,10.23
2018-09-29T21:45:35.659Z,15.03
2018-09-29T21:48:05.502Z,11.30
2018-09-29T21:50:35.265Z,8.13
2018-09-29T21:53:05.075Z,10.93
2018-09-29T21:55:34.833Z,6.20
2018-09-29T21:58:04.649Z,6.73
2018-09-29T22:00:39.403Z,16.67
2018-09-29T22:03:09.186Z,19.57
2018-09-29T22:05:38.963Z,19.63
2018-09-29T22:08:08.775Z,20.13
2018-09-29T22:10:38.606Z,14.33
2018-09-29T22:13:08.719Z,10.53
2018-09-29T22:15:38.459Z,8.47
2018-09-29T22:18:08.257Z,9.30
2018-09-29T22:20:38.525Z,9.07
2018-09-29T22:23:08.289Z,8.73
2018-09-29T22:25:38.059Z,9.37
2018-09-29T22:28:08.124Z,10.17
2018-09-29T22:30:37.930Z,8.27
2018-09-29T22:33:07.879Z,8.90
2018-09-29T22:35:37.639Z,8.03
2018-09-29T22:38:08.042Z,7.67
2018-09-29T22:40:37.795Z,10.37
2018-09-29T22:43:07.644Z,8.33
2018-09-29T22:45:37.450Z,12.07
2018-09-29T22:48:07.534Z,7.60
2018-09-29T22:50:37.316Z,10.53
2018-09-29T22:53:07.257Z,8.00
2018-09-29T22:55:37.339Z,5.73
2018-09-29T22:58:07.138Z,8.97
2018-09-29T23:00:36.925Z,8.87
2018-09-29T23:03:07.047Z,4.33
2018-09-29T23:05:37.051Z,8.07
2018-09-29T23:08:07.031Z,8.23
2018-09-29T23:10:37.071Z,7.93
2018-09-29T23:13:06.859Z,6.13
2018-09-29T23:15:36.637Z,11.00
2018-09-29T23:18:06.411Z,6.97
2018-09-29T23:20:36.170Z,9.17
2018-09-29T23:23:05.967Z,9.67
2018-09-29T23:25:35.775Z,8.77
2018-09-29T23:28:05.900Z,6.53
2018-09-29T23:30:35.677Z,5.97
2018-09-29T23:33:05.466Z,9.00
2018-09-29T23:35:36.602Z,10.10
2018-09-29T23:38:06.502Z,8.40
2018-09-29T23:40:36.298Z,8.37
2018-09-29T23:43:06.102Z,11.00
2018-09-29T23:45:35.883Z,9.07
2018-09-29T23:48:05.671Z,8.90
2018-09-29T23:50:35.834Z,7.87
2018-09-29T23:53:05.671Z,10.17
2018-09-29T23:55:35.499Z,8.53
2018-09-29T23:58:05.330Z,6.37
